sensor_id;sensor_type;location;lat;lon;timestamp;P1;durP1;ratioP1;P2;durP2;ratioP2
11642;SDS011;5877;50.930;6.918;2023-02-11T00:04:27;19.87;;;15.63;;
11642;SDS011;5877;50.930;6.918;2023-02-11T00:09:19;18.70;;;14.73;;
11642;SDS011;5877;50.930;6.918;2023-02-11T00:14:11;18.97;;;14.43;;
11642;SDS011;5877;50.930;6.918;2023-02-11T00:19:03;18.20;;;13.23;;
11642;SDS011;5877;50.930;6.918;2023-02-11T00:23:57;18.27;;;13.60;;
11642;SDS011;5877;50.930;6.918;2023-02-11T00:28:51;17.40;;;13.20;;
11642;SDS011;5877;50.930;6.918;2023-02-11T00:33:43;17.87;;;13.23;;
11642;SDS011;5877;50.930;6.918;2023-02-11T00:38:36;19.67;;;13.23;;
11642;SDS011;5877;50.930;6.918;2023-02-11T00:43:27;17.13;;;13.33;;
11642;SDS011;5877;50.930;6.918;2023-02-11T00:48:19;17.53;;;12.90;;
11642;SDS011;5877;50.930;6.918;2023-02-11T00:53:11;16.80;;;13.57;;
11642;SDS011;5877;50.930;6.918;2023-02-11T00:58:03;16.27;;;12.70;;
11642;SDS011;5877;50.930;6.918;2023-02-11T01:02:55;15.27;;;12.23;;
11642;SDS011;5877;50.930;6.918;2023-02-11T01:07:47;20.30;;;12.20;;
11642;SDS011;5877;50.930;6.918;2023-02-11T01:12:39;20.07;;;12.63;;
11642;SDS011;5877;50.930;6.918;2023-02-11T01:17:32;16.67;;;12.57;;
11642;SDS011;5877;50.930;6.918;2023-02-11T01:22:24;18.90;;;12.57;;
11642;SDS011;5877;50.930;6.918;2023-02-11T01:27:17;17.67;;;13.43;;
11642;SDS011;5877;50.930;6.918;2023-02-11T01:32:10;16.20;;;12.70;;
11642;SDS011;5877;50.930;6.918;2023-02-11T01:37:02;22.27;;;13.43;;
11642;SDS011;5877;50.930;6.918;2023-02-11T01:41:54;18.53;;;13.27;;
11642;SDS011;5877;50.930;6.918;2023-02-11T01:46:46;22.53;;;13.73;;
11642;SDS011;5877;50.930;6.918;2023-02-11T01:51:41;20.40;;;13.80;;
11642;SDS011;5877;50.930;6.918;2023-02-11T01:56:48;21.43;;;13.90;;
11642;SDS011;5877;50.930;6.918;2023-02-11T02:02:01;19.83;;;13.53;;
11642;SDS011;5877;50.930;6.918;2023-02-11T02:07:01;19.13;;;13.90;;
11642;SDS011;5877;50.930;6.918;2023-02-11T02:11:59;19.00;;;13.87;;
11642;SDS011;5877;50.930;6.918;2023-02-11T02:16:51;19.73;;;14.33;;
11642;SDS011;5877;50.930;6.918;2023-02-11T02:42:17;21.07;;;15.30;;
11642;SDS011;5877;50.930;6.918;2023-02-11T02:47:10;20.33;;;15.17;;
11642;SDS011;5877;50.930;6.918;2023-02-11T02:52:12;22.10;;;14.97;;
11642;SDS011;5877;50.930;6.918;2023-02-11T03:12:02;23.00;;;15.33;;
11642;SDS011;5877;50.930;6.918;2023-02-11T03:16:55;23.40;;;15.83;;
11642;SDS011;5877;50.930;6.918;2023-02-11T03:21:51;23.30;;;17.13;;
11642;SDS011;5877;50.930;6.918;2023-02-11T03:26:46;23.17;;;16.27;;
11642;SDS011;5877;50.930;6.918;2023-02-11T03:36:51;24.43;;;16.00;;
11642;SDS011;5877;50.930;6.918;2023-02-11T03:41:48;21.63;;;16.00;;
11642;SDS011;5877;50.930;6.918;2023-02-11T03:46:45;21.73;;;16.03;;
11642;SDS011;5877;50.930;6.918;2023-02-11T03:51:40;23.07;;;15.73;;
11642;SDS011;5877;50.930;6.918;2023-02-11T03:56:35;22.70;;;15.37;;
11642;SDS011;5877;50.930;6.918;2023-02-11T04:01:32;21.20;;;14.57;;
11642;SDS011;5877;50.930;6.918;2023-02-11T04:06:24;20.90;;;14.23;;
11642;SDS011;5877;50.930;6.918;2023-02-11T04:11:17;24.23;;;15.67;;
11642;SDS011;5877;50.930;6.918;2023-02-11T04:16:09;21.50;;;15.17;;
11642;SDS011;5877;50.930;6.918;2023-02-11T04:21:00;22.93;;;16.40;;
11642;SDS011;5877;50.930;6.918;2023-02-11T04:25:53;25.37;;;15.80;;
11642;SDS011;5877;50.930;6.918;2023-02-11T04:30:45;24.13;;;15.10;;
11642;SDS011;5877;50.930;6.918;2023-02-11T04:35:38;21.70;;;15.97;;
11642;SDS011;5877;50.930;6.918;2023-02-11T04:40:30;20.77;;;14.53;;
11642;SDS011;5877;50.930;6.918;2023-02-11T04:45:21;20.37;;;14.50;;
11642;SDS011;5877;50.930;6.918;2023-02-11T04:50:14;20.30;;;14.23;;
11642;SDS011;5877;50.930;6.918;2023-02-11T04:55:07;21.77;;;14.57;;
11642;SDS011;5877;50.930;6.918;2023-02-11T04:59:59;18.77;;;13.93;;
11642;SDS011;5877;50.930;6.918;2023-02-11T05:04:50;21.40;;;14.33;;
11642;SDS011;5877;50.930;6.918;2023-02-11T05:09:43;20.37;;;15.20;;
11642;SDS011;5877;50.930;6.918;2023-02-11T05:14:35;21.80;;;14.87;;
11642;SDS011;5877;50.930;6.918;2023-02-11T05:19:27;21.50;;;15.40;;
11642;SDS011;5877;50.930;6.918;2023-02-11T05:24:19;23.13;;;14.60;;
11642;SDS011;5877;50.930;6.918;2023-02-11T05:29:11;23.50;;;15.27;;
11642;SDS011;5877;50.930;6.918;2023-02-11T05:34:03;24.37;;;16.57;;
11642;SDS011;5877;50.930;6.918;2023-02-11T05:38:54;24.40;;;15.17;;
11642;SDS011;5877;50.930;6.918;2023-02-11T05:43:47;20.87;;;14.97;;
11642;SDS011;5877;50.930;6.918;2023-02-11T05:48:41;24.10;;;15.77;;
11642;SDS011;5877;50.930;6.918;2023-02-11T05:53:33;24.93;;;16.47;;
11642;SDS011;5877;50.930;6.918;2023-02-11T05:58:25;20.70;;;15.43;;
11642;SDS011;5877;50.930;6.918;2023-02-11T06:03:17;23.47;;;15.73;;
11642;SDS011;5877;50.930;6.918;2023-02-11T06:08:09;22.00;;;14.67;;
11642;SDS011;5877;50.930;6.918;2023-02-11T06:13:02;25.97;;;15.40;;
11642;SDS011;5877;50.930;6.918;2023-02-11T06:17:55;25.43;;;15.47;;
11642;SDS011;5877;50.930;6.918;2023-02-11T06:22:47;25.70;;;15.40;;
11642;SDS011;5877;50.930;6.918;2023-02-11T06:27:39;25.87;;;16.87;;
11642;SDS011;5877;50.930;6.918;2023-02-11T06:32:30;23.27;;;15.60;;
11642;SDS011;5877;50.930;6.918;2023-02-11T06:37:35;25.47;;;15.87;;
11642;SDS011;5877;50.930;6.918;2023-02-11T06:42:27;25.20;;;17.00;;
11642;SDS011;5877;50.930;6.918;2023-02-11T06:47:19;28.10;;;16.80;;
11642;SDS011;5877;50.930;6.918;2023-02-11T06:52:11;24.90;;;15.83;;
11642;SDS011;5877;50.930;6.918;2023-02-11T06:57:03;26.40;;;16.90;;
11642;SDS011;5877;50.930;6.918;2023-02-11T07:01:54;25.03;;;15.93;;
11642;SDS011;5877;50.930;6.918;2023-02-11T07:06:46;25.30;;;16.97;;
11642;SDS011;5877;50.930;6.918;2023-02-11T07:11:38;25.40;;;16.17;;
11642;SDS011;5877;50.930;6.918;2023-02-11T07:16:30;25.27;;;16.93;;
11642;SDS011;5877;50.930;6.918;2023-02-11T07:21:22;26.40;;;17.10;;
11642;SDS011;5877;50.930;6.918;2023-02-11T07:26:15;25.37;;;16.03;;
11642;SDS011;5877;50.930;6.918;2023-02-11T07:31:10;22.90;;;16.60;;
11642;SDS011;5877;50.930;6.918;2023-02-11T07:36:05;22.60;;;16.40;;
11642;SDS011;5877;50.930;6.918;2023-02-11T07:40:59;23.80;;;16.63;;
11642;SDS011;5877;50.930;6.918;2023-02-11T07:45:52;23.93;;;16.57;;
11642;SDS011;5877;50.930;6.918;2023-02-11T07:50:44;25.87;;;16.37;;
11642;SDS011;5877;50.930;6.918;2023-02-11T07:55:35;23.93;;;16.63;;
11642;SDS011;5877;50.930;6.918;2023-02-11T08:00:27;21.97;;;16.33;;
11642;SDS011;5877;50.930;6.918;2023-02-11T08:05:19;23.83;;;17.10;;
11642;SDS011;5877;50.930;6.918;2023-02-11T08:10:11;25.57;;;16.90;;
11642;SDS011;5877;50.930;6.918;2023-02-11T08:15:03;29.07;;;17.53;;
11642;SDS011;5877;50.930;6.918;2023-02-11T08:19:54;25.13;;;16.17;;
11642;SDS011;5877;50.930;6.918;2023-02-11T08:24:46;24.80;;;16.03;;
11642;SDS011;5877;50.930;6.918;2023-02-11T08:29:41;27.27;;;17.63;;
11642;SDS011;5877;50.930;6.918;2023-02-11T08:34:33;24.87;;;17.37;;
11642;SDS011;5877;50.930;6.918;2023-02-11T08:39:25;24.80;;;15.80;;
11642;SDS011;5877;50.930;6.918;2023-02-11T08:44:17;27.00;;;17.23;;
11642;SDS011;5877;50.930;6.918;2023-02-11T08:49:10;25.00;;;15.53;;
11642;SDS011;5877;50.930;6.918;2023-02-11T08:54:02;22.37;;;15.50;;
11642;SDS011;5877;50.930;6.918;2023-02-11T08:58:54;24.40;;;16.60;;
11642;SDS011;5877;50.930;6.918;2023-02-11T09:03:46;28.93;;;19.73;;
11642;SDS011;5877;50.930;6.918;2023-02-11T09:08:39;22.43;;;15.93;;
11642;SDS011;5877;50.930;6.918;2023-02-11T09:13:36;22.47;;;16.13;;
11642;SDS011;5877;50.930;6.918;2023-02-11T09:18:28;20.13;;;16.23;;
11642;SDS011;5877;50.930;6.918;2023-02-11T09:23:20;22.03;;;15.40;;
11642;SDS011;5877;50.930;6.918;2023-02-11T09:28:12;25.43;;;16.77;;
11642;SDS011;5877;50.930;6.918;2023-02-11T09:33:04;24.13;;;15.93;;
11642;SDS011;5877;50.930;6.918;2023-02-11T09:37:56;21.93;;;15.73;;
11642;SDS011;5877;50.930;6.918;2023-02-11T09:48:04;20.87;;;15.00;;
11642;SDS011;5877;50.930;6.918;2023-02-11T09:53:19;20.73;;;15.57;;
11642;SDS011;5877;50.930;6.918;2023-02-11T09:58:16;19.53;;;15.37;;
11642;SDS011;5877;50.930;6.918;2023-02-11T10:18:49;20.70;;;15.50;;
11642;SDS011;5877;50.930;6.918;2023-02-11T10:23:59;22.83;;;15.10;;
11642;SDS011;5877;50.930;6.918;2023-02-11T10:28:54;21.17;;;14.47;;
11642;SDS011;5877;50.930;6.918;2023-02-11T10:38:50;20.87;;;14.80;;
11642;SDS011;5877;50.930;6.918;2023-02-11T10:43:42;19.53;;;14.60;;
11642;SDS011;5877;50.930;6.918;2023-02-11T10:53:30;19.03;;;14.97;;
11642;SDS011;5877;50.930;6.918;2023-02-11T10:58:25;21.47;;;15.53;;
11642;SDS011;5877;50.930;6.918;2023-02-11T11:03:25;20.83;;;14.73;;
11642;SDS011;5877;50.930;6.918;2023-02-11T11:08:20;22.60;;;15.03;;
11642;SDS011;5877;50.930;6.918;2023-02-11T11:18:18;21.83;;;15.30;;
11642;SDS011;5877;50.930;6.918;2023-02-11T11:23:18;20.87;;;15.73;;
11642;SDS011;5877;50.930;6.918;2023-02-11T11:28:20;20.57;;;15.60;;
11642;SDS011;5877;50.930;6.918;2023-02-11T11:33:18;21.90;;;16.40;;
11642;SDS011;5877;50.930;6.918;2023-02-11T11:38:13;20.83;;;14.80;;
11642;SDS011;5877;50.930;6.918;2023-02-11T11:53:08;21.97;;;16.33;;
11642;SDS011;5877;50.930;6.918;2023-02-11T11:58:01;21.97;;;15.93;;
11642;SDS011;5877;50.930;6.918;2023-02-11T12:03:03;22.17;;;16.37;;
11642;SDS011;5877;50.930;6.918;2023-02-11T12:08:15;23.03;;;16.70;;
11642;SDS011;5877;50.930;6.918;2023-02-11T12:18:29;22.10;;;16.17;;
11642;SDS011;5877;50.930;6.918;2023-02-11T12:23:53;22.10;;;16.30;;
11642;SDS011;5877;50.930;6.918;2023-02-11T12:29:29;22.63;;;16.63;;
11642;SDS011;5877;50.930;6.918;2023-02-11T12:49:56;23.80;;;17.80;;
11642;SDS011;5877;50.930;6.918;2023-02-11T12:54:54;26.27;;;17.73;;
11642;SDS011;5877;50.930;6.918;2023-02-11T13:04:51;23.60;;;17.60;;
11642;SDS011;5877;50.930;6.918;2023-02-11T13:15:06;23.53;;;17.67;;
11642;SDS011;5877;50.930;6.918;2023-02-11T13:20:04;25.33;;;18.70;;
11642;SDS011;5877;50.930;6.918;2023-02-11T13:25:18;26.60;;;18.20;;
11642;SDS011;5877;50.930;6.918;2023-02-11T13:40:37;24.93;;;17.43;;
11642;SDS011;5877;50.930;6.918;2023-02-11T13:45:32;25.90;;;18.50;;
11642;SDS011;5877;50.930;6.918;2023-02-11T13:50:27;27.37;;;19.30;;
11642;SDS011;5877;50.930;6.918;2023-02-11T13:55:27;24.20;;;17.70;;
11642;SDS011;5877;50.930;6.918;2023-02-11T14:05:35;32.73;;;19.90;;
11642;SDS011;5877;50.930;6.918;2023-02-11T14:10:47;26.43;;;18.97;;
11642;SDS011;5877;50.930;6.918;2023-02-11T14:15:44;28.90;;;20.20;;
11642;SDS011;5877;50.930;6.918;2023-02-11T14:20:37;28.60;;;19.40;;
11642;SDS011;5877;50.930;6.918;2023-02-11T14:25:33;29.93;;;19.67;;
11642;SDS011;5877;50.930;6.918;2023-02-11T14:31:11;26.73;;;20.17;;
11642;SDS011;5877;50.930;6.918;2023-02-11T14:41:37;29.63;;;20.53;;
11642;SDS011;5877;50.930;6.918;2023-02-11T14:46:32;29.83;;;19.47;;
11642;SDS011;5877;50.930;6.918;2023-02-11T14:51:25;26.93;;;20.47;;
11642;SDS011;5877;50.930;6.918;2023-02-11T14:56:22;25.83;;;18.90;;
11642;SDS011;5877;50.930;6.918;2023-02-11T15:06:29;27.33;;;19.33;;
11642;SDS011;5877;50.930;6.918;2023-02-11T15:11:33;29.77;;;20.87;;
11642;SDS011;5877;50.930;6.918;2023-02-11T15:16:30;28.70;;;19.83;;
11642;SDS011;5877;50.930;6.918;2023-02-11T15:21:23;27.27;;;19.50;;
11642;SDS011;5877;50.930;6.918;2023-02-11T15:26:20;27.57;;;19.43;;
11642;SDS011;5877;50.930;6.918;2023-02-11T15:31:13;25.60;;;18.40;;
11642;SDS011;5877;50.930;6.918;2023-02-11T15:36:09;29.00;;;19.60;;
11642;SDS011;5877;50.930;6.918;2023-02-11T15:41:02;37.50;;;26.87;;
11642;SDS011;5877;50.930;6.918;2023-02-11T15:45:58;25.00;;;18.20;;
11642;SDS011;5877;50.930;6.918;2023-02-11T15:50:53;28.03;;;19.80;;
11642;SDS011;5877;50.930;6.918;2023-02-11T15:55:50;28.10;;;20.50;;
11642;SDS011;5877;50.930;6.918;2023-02-11T16:00:48;27.10;;;19.23;;
11642;SDS011;5877;50.930;6.918;2023-02-11T16:05:45;27.60;;;18.53;;
11642;SDS011;5877;50.930;6.918;2023-02-11T16:10:36;29.27;;;19.93;;
11642;SDS011;5877;50.930;6.918;2023-02-11T16:20:21;28.10;;;18.70;;
11642;SDS011;5877;50.930;6.918;2023-02-11T16:25:17;23.63;;;17.47;;
11642;SDS011;5877;50.930;6.918;2023-02-11T16:30:31;28.50;;;20.60;;
11642;SDS011;5877;50.930;6.918;2023-02-11T16:35:25;28.93;;;20.93;;
11642;SDS011;5877;50.930;6.918;2023-02-11T16:40:16;28.60;;;20.10;;
11642;SDS011;5877;50.930;6.918;2023-02-11T16:45:08;27.03;;;20.20;;
11642;SDS011;5877;50.930;6.918;2023-02-11T16:50:00;31.10;;;20.43;;
11642;SDS011;5877;50.930;6.918;2023-02-11T16:54:53;31.40;;;20.63;;
11642;SDS011;5877;50.930;6.918;2023-02-11T16:59:45;29.83;;;20.47;;
11642;SDS011;5877;50.930;6.918;2023-02-11T17:04:37;29.37;;;20.73;;
11642;SDS011;5877;50.930;6.918;2023-02-11T17:09:29;28.03;;;20.00;;
11642;SDS011;5877;50.930;6.918;2023-02-11T17:14:21;31.83;;;21.47;;
11642;SDS011;5877;50.930;6.918;2023-02-11T17:19:15;31.70;;;22.40;;
11642;SDS011;5877;50.930;6.918;2023-02-11T17:24:11;28.70;;;20.60;;
11642;SDS011;5877;50.930;6.918;2023-02-11T17:29:05;33.00;;;21.17;;
11642;SDS011;5877;50.930;6.918;2023-02-11T17:33:58;29.10;;;20.97;;
11642;SDS011;5877;50.930;6.918;2023-02-11T17:38:50;32.20;;;22.73;;
11642;SDS011;5877;50.930;6.918;2023-02-11T17:43:42;33.10;;;22.27;;
11642;SDS011;5877;50.930;6.918;2023-02-11T17:48:37;30.73;;;21.93;;
11642;SDS011;5877;50.930;6.918;2023-02-11T17:53:30;34.60;;;22.10;;
11642;SDS011;5877;50.930;6.918;2023-02-11T17:58:22;33.20;;;21.90;;
11642;SDS011;5877;50.930;6.918;2023-02-11T18:03:14;29.67;;;20.90;;
11642;SDS011;5877;50.930;6.918;2023-02-11T18:08:06;31.40;;;21.37;;
11642;SDS011;5877;50.930;6.918;2023-02-11T18:13:00;30.50;;;21.63;;
11642;SDS011;5877;50.930;6.918;2023-02-11T18:17:52;30.40;;;21.80;;
11642;SDS011;5877;50.930;6.918;2023-02-11T18:22:45;30.77;;;21.17;;
11642;SDS011;5877;50.930;6.918;2023-02-11T18:27:37;29.80;;;21.53;;
11642;SDS011;5877;50.930;6.918;2023-02-11T18:32:30;31.70;;;21.77;;
11642;SDS011;5877;50.930;6.918;2023-02-11T18:37:22;30.50;;;22.10;;
11642;SDS011;5877;50.930;6.918;2023-02-11T18:42:14;32.47;;;22.40;;
11642;SDS011;5877;50.930;6.918;2023-02-11T18:47:07;32.07;;;21.63;;
11642;SDS011;5877;50.930;6.918;2023-02-11T18:51:58;31.73;;;22.17;;
11642;SDS011;5877;50.930;6.918;2023-02-11T18:56:50;33.27;;;22.70;;
11642;SDS011;5877;50.930;6.918;2023-02-11T19:01:42;31.33;;;22.47;;
11642;SDS011;5877;50.930;6.918;2023-02-11T19:06:37;31.03;;;22.57;;
11642;SDS011;5877;50.930;6.918;2023-02-11T19:11:30;29.30;;;21.53;;
11642;SDS011;5877;50.930;6.918;2023-02-11T19:16:38;32.37;;;22.20;;
11642;SDS011;5877;50.930;6.918;2023-02-11T19:21:32;34.47;;;23.10;;
11642;SDS011;5877;50.930;6.918;2023-02-11T19:26:24;33.50;;;22.97;;
11642;SDS011;5877;50.930;6.918;2023-02-11T19:31:17;33.87;;;23.37;;
11642;SDS011;5877;50.930;6.918;2023-02-11T19:36:09;32.40;;;22.80;;
11642;SDS011;5877;50.930;6.918;2023-02-11T19:41:06;34.93;;;23.97;;
11642;SDS011;5877;50.930;6.918;2023-02-11T19:46:02;34.00;;;24.00;;
11642;SDS011;5877;50.930;6.918;2023-02-11T19:50:54;35.93;;;24.50;;
11642;SDS011;5877;50.930;6.918;2023-02-11T19:55:47;35.13;;;25.10;;
11642;SDS011;5877;50.930;6.918;2023-02-11T20:00:40;37.67;;;24.37;;
11642;SDS011;5877;50.930;6.918;2023-02-11T20:05:33;37.53;;;25.07;;
11642;SDS011;5877;50.930;6.918;2023-02-11T20:10:26;33.30;;;24.23;;
11642;SDS011;5877;50.930;6.918;2023-02-11T20:15:18;39.43;;;25.17;;
11642;SDS011;5877;50.930;6.918;2023-02-11T20:20:10;36.30;;;24.97;;
11642;SDS011;5877;50.930;6.918;2023-02-11T20:25:03;35.10;;;24.10;;
11642;SDS011;5877;50.930;6.918;2023-02-11T20:29:55;39.07;;;25.63;;
11642;SDS011;5877;50.930;6.918;2023-02-11T20:34:47;36.27;;;25.67;;
11642;SDS011;5877;50.930;6.918;2023-02-11T20:39:39;39.40;;;26.73;;
11642;SDS011;5877;50.930;6.918;2023-02-11T20:44:32;36.93;;;25.53;;
11642;SDS011;5877;50.930;6.918;2023-02-11T20:49:27;37.43;;;25.70;;
11642;SDS011;5877;50.930;6.918;2023-02-11T20:54:20;36.07;;;24.93;;
11642;SDS011;5877;50.930;6.918;2023-02-11T20:59:13;36.77;;;25.20;;
11642;SDS011;5877;50.930;6.918;2023-02-11T21:04:12;36.57;;;24.77;;
11642;SDS011;5877;50.930;6.918;2023-02-11T21:09:11;37.90;;;25.23;;
11642;SDS011;5877;50.930;6.918;2023-02-11T21:14:05;39.20;;;26.63;;
11642;SDS011;5877;50.930;6.918;2023-02-11T21:18:58;40.20;;;27.03;;
11642;SDS011;5877;50.930;6.918;2023-02-11T21:23:51;36.33;;;25.77;;
11642;SDS011;5877;50.930;6.918;2023-02-11T21:28:43;37.43;;;27.00;;
11642;SDS011;5877;50.930;6.918;2023-02-11T21:33:35;37.87;;;26.30;;
11642;SDS011;5877;50.930;6.918;2023-02-11T21:38:28;38.43;;;25.87;;
11642;SDS011;5877;50.930;6.918;2023-02-11T21:43:21;37.80;;;25.63;;
11642;SDS011;5877;50.930;6.918;2023-02-11T21:48:14;42.30;;;26.93;;
11642;SDS011;5877;50.930;6.918;2023-02-11T21:53:07;43.20;;;27.80;;
11642;SDS011;5877;50.930;6.918;2023-02-11T21:57:59;43.87;;;28.53;;
11642;SDS011;5877;50.930;6.918;2023-02-11T22:02:52;38.63;;;25.93;;
11642;SDS011;5877;50.930;6.918;2023-02-11T22:07:44;37.77;;;26.77;;
11642;SDS011;5877;50.930;6.918;2023-02-11T22:12:36;57.60;;;41.80;;
11642;SDS011;5877;50.930;6.918;2023-02-11T22:17:28;37.23;;;26.10;;
11642;SDS011;5877;50.930;6.918;2023-02-11T22:22:19;39.33;;;26.27;;
11642;SDS011;5877;50.930;6.918;2023-02-11T22:27:12;38.43;;;26.70;;
11642;SDS011;5877;50.930;6.918;2023-02-11T22:32:04;39.37;;;27.27;;
11642;SDS011;5877;50.930;6.918;2023-02-11T22:36:56;37.77;;;26.90;;
11642;SDS011;5877;50.930;6.918;2023-02-11T22:41:48;33.23;;;24.67;;
11642;SDS011;5877;50.930;6.918;2023-02-11T22:46:41;39.73;;;26.50;;
11642;SDS011;5877;50.930;6.918;2023-02-11T22:51:34;41.57;;;26.10;;
11642;SDS011;5877;50.930;6.918;2023-02-11T22:56:27;40.23;;;25.93;;
11642;SDS011;5877;50.930;6.918;2023-02-11T23:01:20;39.90;;;27.33;;
11642;SDS011;5877;50.930;6.918;2023-02-11T23:06:12;38.33;;;27.33;;
11642;SDS011;5877;50.930;6.918;2023-02-11T23:11:05;39.93;;;26.43;;
11642;SDS011;5877;50.930;6.918;2023-02-11T23:16:02;42.87;;;27.07;;
11642;SDS011;5877;50.930;6.918;2023-02-11T23:21:00;39.90;;;26.67;;
11642;SDS011;5877;50.930;6.918;2023-02-11T23:25:53;39.53;;;26.60;;
11642;SDS011;5877;50.930;6.918;2023-02-11T23:30:45;38.30;;;26.03;;
11642;SDS011;5877;50.930;6.918;2023-02-11T23:35:37;41.47;;;26.30;;
11642;SDS011;5877;50.930;6.918;2023-02-11T23:40:29;37.10;;;25.57;;
11642;SDS011;5877;50.930;6.918;2023-02-11T23:45:21;39.27;;;25.90;;
11642;SDS011;5877;50.930;6.918;2023-02-11T23:50:13;43.53;;;28.47;;
11642;SDS011;5877;50.930;6.918;2023-02-11T23:55:05;39.30;;;26.23;;
11642;SDS011;5877;50.930;6.918;2023-02-11T23:59:57;40.57;;;27.07;;
